createdAt,value
2019-03-26T00:00:44.179Z,101124.92
2019-03-26T00:04:24.000Z,101124.78
2019-03-26T00:07:18.726Z,101126.70
2019-03-26T00:09:50.293Z,101131.10
2019-03-26T00:12:27.421Z,101138.06
2019-03-26T00:14:58.688Z,101143.23
2019-03-26T00:17:30.897Z,101152.24
2019-03-26T00:20:02.201Z,101152.77
2019-03-26T00:23:52.347Z,101156.66
2019-03-26T00:27:22.635Z,101151.42
2019-03-26T00:31:16.639Z,101152.35
2019-03-26T00:36:32.704Z,101163.54
2019-03-26T00:39:06.256Z,101159.19
2019-03-26T00:41:37.491Z,101151.25
2019-03-26T00:44:08.788Z,101163.27
2019-03-26T00:46:40.498Z,101168.13
2019-03-26T00:49:12.959Z,101161.44
2019-03-26T00:51:44.278Z,101158.72
2019-03-26T00:54:15.481Z,101164.20
2019-03-26T00:56:46.675Z,101172.56
2019-03-26T00:59:18.733Z,101177.38
2019-03-26T01:02:51.065Z,101184.06
2019-03-26T01:05:41.554Z,101181.20
2019-03-26T01:09:03.519Z,101186.98
2019-03-26T01:12:14.573Z,101190.52
2019-03-26T01:14:47.040Z,101181.40
2019-03-26T01:17:21.487Z,101186.14
2019-03-26T01:19:53.116Z,101181.23
2019-03-26T01:29:59.410Z,101178.09
2019-03-26T01:36:39.328Z,101178.93
2019-03-26T01:40:01.263Z,101181.71
2019-03-26T01:42:51.723Z,101176.83
2019-03-26T01:46:18.402Z,101177.67
2019-03-26T01:49:55.241Z,101179.24
2019-03-26T01:52:26.405Z,101181.56
2019-03-26T01:55:27.992Z,101184.04
2019-03-26T01:58:50.115Z,101183.35
2019-03-26T02:01:54.862Z,101186.83
2019-03-26T02:05:19.681Z,101180.10
2019-03-26T02:07:51.074Z,101184.82
2019-03-26T02:10:23.059Z,101183.38
2019-03-26T02:12:54.286Z,101191.61
2019-03-26T02:15:36.812Z,101189.67
2019-03-26T02:18:10.304Z,101195.13
2019-03-26T02:20:43.480Z,101195.34
2019-03-26T02:23:14.891Z,101191.14
2019-03-26T02:26:28.135Z,101195.38
2019-03-26T02:29:36.503Z,101197.92
2019-03-26T02:32:21.290Z,101193.23
2019-03-26T02:34:52.641Z,101196.45
2019-03-26T02:37:23.932Z,101197.28
2019-03-26T02:40:13.055Z,101197.94
2019-03-26T02:46:38.980Z,101206.13
2019-03-26T02:49:11.250Z,101200.28
2019-03-26T02:51:42.387Z,101197.64
2019-03-26T02:54:13.772Z,101198.83
2019-03-26T02:56:50.628Z,101202.84
2019-03-26T02:59:21.922Z,101197.44
2019-03-26T03:01:53.237Z,101197.06
2019-03-26T03:04:24.728Z,101202.89
2019-03-26T03:07:13.921Z,101203.52
2019-03-26T03:10:29.923Z,101201.11
2019-03-26T03:13:02.717Z,101196.45
2019-03-26T03:15:34.182Z,101195.21
2019-03-26T03:18:06.383Z,101200.02
2019-03-26T03:20:37.648Z,101199.80
2019-03-26T03:23:09.168Z,101198.69
2019-03-26T03:25:40.685Z,101204.66
2019-03-26T03:28:38.444Z,101202.98
2019-03-26T03:31:09.680Z,101204.81
2019-03-26T03:33:40.862Z,101204.70
2019-03-26T03:36:18.520Z,101213.77
2019-03-26T03:38:49.683Z,101214.73
2019-03-26T03:41:23.361Z,101223.56
2019-03-26T03:43:54.505Z,101222.81
2019-03-26T03:46:45.327Z,101228.23
2019-03-26T03:49:23.122Z,101229.74
2019-03-26T03:52:42.630Z,101234.23
2019-03-26T03:56:08.247Z,101239.66
2019-03-26T03:59:28.023Z,101240.17
2019-03-26T04:03:13.176Z,101242.38
2019-03-26T04:05:44.501Z,101240.52
2019-03-26T04:08:17.865Z,101242.21
2019-03-26T04:10:49.156Z,101237.00
2019-03-26T04:13:30.412Z,101237.98
2019-03-26T04:19:34.109Z,101238.25
2019-03-26T04:22:05.264Z,101241.18
2019-03-26T04:24:36.505Z,101247.70
2019-03-26T04:27:40.568Z,101243.97
2019-03-26T04:30:34.099Z,101244.18
2019-03-26T04:33:29.149Z,101243.17
2019-03-26T04:36:00.676Z,101247.02
2019-03-26T04:38:31.825Z,101252.14
2019-03-26T04:41:10.800Z,101247.70
2019-03-26T04:43:51.560Z,101247.05
2019-03-26T04:46:46.304Z,101255.28
2019-03-26T04:49:17.560Z,101262.95
2019-03-26T04:51:52.203Z,101257.11
2019-03-26T04:54:55.567Z,101262.08
2019-03-26T04:58:03.297Z,101264.02
2019-03-26T05:00:56.531Z,101259.20
2019-03-26T05:04:58.134Z,101270.39
2019-03-26T05:08:02.254Z,101281.48
2019-03-26T05:10:33.705Z,101271.92
2019-03-26T05:13:05.479Z,101279.05
2019-03-26T05:15:41.189Z,101276.09
2019-03-26T05:18:24.592Z,101279.58
2019-03-26T05:21:22.602Z,101274.74
2019-03-26T05:24:12.201Z,101269.23
2019-03-26T05:26:52.041Z,101272.66
2019-03-26T05:29:39.457Z,101274.79
2019-03-26T05:32:11.725Z,101273.47
2019-03-26T05:34:48.494Z,101270.59
2019-03-26T05:37:19.776Z,101278.61
2019-03-26T05:40:24.059Z,101268.44
2019-03-26T05:43:08.759Z,101273.47
2019-03-26T05:46:25.670Z,101269.52
2019-03-26T05:49:30.610Z,101262.42
2019-03-26T05:52:04.009Z,101266.14
2019-03-26T05:54:35.293Z,101262.57
2019-03-26T05:57:07.423Z,101267.45
2019-03-26T05:59:42.111Z,101261.83
2019-03-26T06:02:17.867Z,101265.83
2019-03-26T06:05:00.874Z,101263.15
2019-03-26T06:08:38.700Z,101266.03
2019-03-26T06:12:17.742Z,101263.19
2019-03-26T06:15:24.957Z,101265.06
2019-03-26T06:18:46.267Z,101267.95
2019-03-26T06:25:27.077Z,101270.59
2019-03-26T06:28:31.078Z,101274.42
2019-03-26T06:31:33.050Z,101277.91
2019-03-26T06:34:20.169Z,101284.66
2019-03-26T06:36:55.281Z,101287.32
2019-03-26T06:39:28.911Z,101287.53
2019-03-26T06:42:00.202Z,101290.81
2019-03-26T06:44:31.881Z,101283.63
2019-03-26T06:47:03.311Z,101295.15
2019-03-26T06:49:48.107Z,101295.61
2019-03-26T06:52:36.362Z,101306.03
2019-03-26T06:55:10.103Z,101310.09
2019-03-26T06:57:41.827Z,101318.34
2019-03-26T07:00:58.615Z,101313.72
2019-03-26T07:04:20.344Z,101313.40
2019-03-26T07:07:35.692Z,101320.92
2019-03-26T07:18:08.271Z,101318.30
2019-03-26T07:20:47.659Z,101312.36
2019-03-26T07:23:45.389Z,101312.80
2019-03-26T07:26:15.496Z,101314.48
2019-03-26T07:28:53.183Z,101316.52
2019-03-26T07:31:28.307Z,101323.23
2019-03-26T07:33:59.619Z,101326.38
2019-03-26T07:36:33.812Z,101330.81
2019-03-26T07:39:05.966Z,101329.42
2019-03-26T07:41:43.334Z,101338.06
2019-03-26T07:44:22.090Z,101333.75
2019-03-26T07:46:54.104Z,101345.22
2019-03-26T07:49:35.125Z,101348.23
2019-03-26T07:52:18.987Z,101352.30
2019-03-26T07:54:50.548Z,101353.86
2019-03-26T07:57:33.733Z,101361.41
2019-03-26T08:00:14.952Z,101357.12
2019-03-26T08:03:30.168Z,101358.36
2019-03-26T08:06:50.086Z,101354.26
2019-03-26T08:09:21.592Z,101345.81
2019-03-26T08:11:57.888Z,101347.66
2019-03-26T08:14:31.048Z,101347.02
2019-03-26T08:17:11.215Z,101339.63
2019-03-26T08:19:45.111Z,101341.78
2019-03-26T08:22:16.959Z,101347.76
2019-03-26T08:24:53.320Z,101346.59
2019-03-26T08:27:27.621Z,101350.98
2019-03-26T08:30:02.753Z,101349.08
2019-03-26T08:32:37.123Z,101355.07
2019-03-26T08:35:30.611Z,101348.79
2019-03-26T08:38:12.830Z,101349.18
2019-03-26T08:44:05.075Z,101332.09
2019-03-26T08:46:57.381Z,101339.52
2019-03-26T08:50:37.713Z,101331.80
2019-03-26T08:53:40.649Z,101340.34
2019-03-26T08:56:16.272Z,101352.78
2019-03-26T09:02:01.179Z,101343.67
2019-03-26T09:04:32.904Z,101345.87
2019-03-26T09:07:05.554Z,101348.73
2019-03-26T09:09:39.892Z,101353.46
2019-03-26T09:12:45.165Z,101350.28
2019-03-26T09:16:03.486Z,101343.67
2019-03-26T09:18:35.194Z,101348.97
2019-03-26T09:21:17.672Z,101336.82
2019-03-26T09:23:52.070Z,101337.52
2019-03-26T09:26:42.995Z,101338.11
2019-03-26T09:29:35.758Z,101328.10
2019-03-26T09:32:08.324Z,101333.20
2019-03-26T09:34:39.992Z,101341.66
2019-03-26T09:37:11.397Z,101331.50
2019-03-26T09:39:42.824Z,101329.92
2019-03-26T09:42:14.169Z,101332.63
2019-03-26T09:44:47.523Z,101322.07
2019-03-26T09:47:19.029Z,101325.91
2019-03-26T09:49:50.442Z,101314.45
2019-03-26T09:52:49.162Z,101310.84
2019-03-26T09:56:00.552Z,101306.06
2019-03-26T09:58:35.830Z,101306.80
2019-03-26T10:01:12.846Z,101299.62
2019-03-26T10:08:19.768Z,101275.50
2019-03-26T10:11:25.519Z,101276.16
2019-03-26T10:14:29.535Z,101279.98
2019-03-26T10:25:40.464Z,101282.76
2019-03-26T10:29:29.158Z,101284.80
2019-03-26T10:31:47.839Z,101281.00
2019-03-26T10:35:10.635Z,101277.23
2019-03-26T10:37:48.306Z,101265.70
2019-03-26T10:40:33.546Z,101255.34
2019-03-26T10:43:06.396Z,101258.08
2019-03-26T10:45:38.904Z,101263.54
2019-03-26T10:48:15.471Z,101260.02
2019-03-26T10:50:47.572Z,101251.69
2019-03-26T10:53:18.929Z,101265.75
2019-03-26T10:55:50.427Z,101257.25
2019-03-26T10:58:24.341Z,101252.48
2019-03-26T11:01:17.464Z,101251.80
2019-03-26T11:03:52.091Z,101248.11
2019-03-26T11:06:23.839Z,101255.56
2019-03-26T11:09:32.894Z,101252.99
2019-03-26T11:12:06.922Z,101256.84
2019-03-26T11:14:43.608Z,101246.81
2019-03-26T11:17:23.641Z,101250.05
2019-03-26T11:20:31.825Z,101243.05
2019-03-26T11:23:17.899Z,101250.52
2019-03-26T11:26:11.955Z,101245.02
2019-03-26T11:28:49.752Z,101252.03
2019-03-26T11:31:33.071Z,101262.56
2019-03-26T11:34:12.545Z,101257.75
2019-03-26T11:37:21.983Z,101254.26
2019-03-26T11:40:07.492Z,101249.05
2019-03-26T11:42:42.480Z,101245.17
2019-03-26T11:45:19.541Z,101258.97
2019-03-26T11:47:51.604Z,101253.52
2019-03-26T11:50:26.974Z,101245.29
2019-03-26T11:53:11.368Z,101235.95
2019-03-26T11:55:43.855Z,101232.23
2019-03-26T11:58:30.351Z,101231.61
2019-03-26T12:04:44.739Z,101215.78
2019-03-26T12:08:22.163Z,101224.98
2019-03-26T12:10:57.453Z,101212.58
2019-03-26T12:13:58.671Z,101212.34
2019-03-26T12:17:15.217Z,101202.16
2019-03-26T12:20:47.319Z,101193.17
2019-03-26T12:23:39.191Z,101207.26
2019-03-26T12:26:11.856Z,101205.69
2019-03-26T12:28:46.412Z,101205.39
2019-03-26T12:32:03.534Z,101198.73
2019-03-26T12:34:26.932Z,101206.23
2019-03-26T12:36:58.617Z,101204.01
2019-03-26T12:39:31.182Z,101204.50
2019-03-26T12:42:03.160Z,101201.15
2019-03-26T12:44:40.483Z,101200.04
2019-03-26T12:47:14.049Z,101195.52
2019-03-26T12:49:58.746Z,101187.17
2019-03-26T12:57:08.349Z,101199.98
2019-03-26T13:04:39.189Z,101196.71
2019-03-26T13:07:46.226Z,101205.86
2019-03-26T13:10:17.773Z,101200.66
2019-03-26T13:12:52.315Z,101192.86
2019-03-26T13:15:25.091Z,101189.41
2019-03-26T13:18:26.440Z,101191.12
2019-03-26T13:21:03.933Z,101183.01
2019-03-26T13:23:41.048Z,101191.91
2019-03-26T13:26:12.716Z,101177.77
2019-03-26T13:28:44.430Z,101181.76
2019-03-26T13:31:16.176Z,101174.27
2019-03-26T13:33:58.988Z,101172.06
2019-03-26T13:37:09.764Z,101168.16
2019-03-26T13:40:34.924Z,101160.61
2019-03-26T13:43:07.166Z,101162.88
2019-03-26T13:46:42.300Z,101159.88
2019-03-26T13:52:54.772Z,101158.44
2019-03-26T13:56:06.869Z,101155.53
2019-03-26T13:59:25.319Z,101167.95
2019-03-26T14:03:18.749Z,101160.59
2019-03-26T14:06:19.796Z,101157.23
2019-03-26T14:09:43.386Z,101151.92
2019-03-26T14:12:55.801Z,101155.77
2019-03-26T14:16:16.117Z,101148.23
2019-03-26T14:18:54.233Z,101139.19
2019-03-26T14:21:31.695Z,101143.09
2019-03-26T14:24:13.151Z,101147.97
2019-03-26T14:27:04.590Z,101147.23
2019-03-26T14:29:47.142Z,101154.34
2019-03-26T14:33:04.511Z,101154.17
2019-03-26T14:35:50.154Z,101162.48
2019-03-26T14:38:54.753Z,101157.78
2019-03-26T14:46:46.908Z,101153.58
2019-03-26T14:55:21.996Z,101165.72
2019-03-26T14:58:49.549Z,101168.13
2019-03-26T15:02:33.667Z,101168.36
2019-03-26T15:09:30.882Z,101166.14
2019-03-26T15:12:56.491Z,101174.46
2019-03-26T15:15:29.601Z,101173.03
2019-03-26T15:18:01.198Z,101177.72
2019-03-26T15:20:35.642Z,101179.39
2019-03-26T15:23:06.738Z,101176.61
2019-03-26T15:25:41.059Z,101176.37
2019-03-26T15:28:12.872Z,101167.69
2019-03-26T15:30:48.777Z,101177.20
2019-03-26T15:33:20.569Z,101179.27
2019-03-26T15:35:52.117Z,101173.04
2019-03-26T15:38:23.541Z,101182.30
2019-03-26T15:40:56.889Z,101180.26
2019-03-26T15:43:28.336Z,101192.27
2019-03-26T15:46:00.164Z,101192.93
2019-03-26T15:48:31.832Z,101191.48
2019-03-26T15:51:03.448Z,101187.57
2019-03-26T15:53:38.143Z,101190.56
2019-03-26T15:56:11.642Z,101195.47
2019-03-26T15:58:44.764Z,101191.36
2019-03-26T16:01:16.630Z,101190.48
2019-03-26T16:03:49.555Z,101194.69
2019-03-26T16:06:21.446Z,101195.45
2019-03-26T16:09:26.133Z,101198.75
2019-03-26T16:11:58.436Z,101185.86
2019-03-26T16:15:51.843Z,101192.31
2019-03-26T16:17:21.890Z,101198.55
2019-03-26T16:19:59.558Z,101196.61
2019-03-26T16:22:34.650Z,101192.20
2019-03-26T16:25:06.925Z,101204.47
2019-03-26T16:27:38.819Z,101197.86
2019-03-26T16:30:18.362Z,101194.84
2019-03-26T16:32:51.592Z,101195.33
2019-03-26T16:35:25.849Z,101200.38
2019-03-26T16:37:59.803Z,101201.70
2019-03-26T16:40:32.769Z,101201.39
2019-03-26T16:56:38.743Z,101213.89
2019-03-26T17:08:22.575Z,101232.12
2019-03-26T17:11:35.732Z,101231.73
2019-03-26T17:17:21.677Z,101226.13
2019-03-26T17:20:07.439Z,101227.09
2019-03-26T17:23:16.601Z,101229.30
2019-03-26T17:27:13.154Z,101233.63
2019-03-26T17:29:36.938Z,101232.07
2019-03-26T17:32:15.712Z,101236.16
2019-03-26T17:34:46.749Z,101242.63
2019-03-26T17:37:17.438Z,101241.64
2019-03-26T17:39:50.361Z,101230.53
2019-03-26T17:42:51.449Z,101239.95
2019-03-26T17:45:26.173Z,101237.98
2019-03-26T17:47:57.453Z,101236.36
2019-03-26T17:50:28.810Z,101248.42
2019-03-26T17:53:05.160Z,101249.45
2019-03-26T17:55:41.933Z,101243.73
2019-03-26T17:58:15.522Z,101251.36
2019-03-26T18:00:53.685Z,101244.70
2019-03-26T18:03:27.020Z,101257.59
2019-03-26T18:06:02.522Z,101256.44
2019-03-26T18:08:43.044Z,101255.88
2019-03-26T18:11:18.151Z,101257.45
2019-03-26T18:13:53.341Z,101254.55
2019-03-26T18:16:28.070Z,101260.17
2019-03-26T18:19:02.456Z,101261.38
2019-03-26T18:21:50.337Z,101265.72
2019-03-26T18:24:10.174Z,101268.63
2019-03-26T18:26:47.272Z,101270.05
2019-03-26T18:29:24.989Z,101267.01
2019-03-26T18:31:56.652Z,101276.53
2019-03-26T18:34:30.690Z,101271.17
2019-03-26T18:37:09.036Z,101270.16
2019-03-26T18:39:47.113Z,101275.42
2019-03-26T18:42:19.375Z,101276.31
2019-03-26T18:44:55.538Z,101292.07
2019-03-26T18:47:33.492Z,101288.53
2019-03-26T18:50:11.692Z,101287.97
2019-03-26T18:52:43.387Z,101293.89
2019-03-26T18:55:16.544Z,101288.16
2019-03-26T18:57:57.808Z,101291.17
2019-03-26T19:00:39.993Z,101300.33
2019-03-26T19:03:11.556Z,101304.95
2019-03-26T19:05:47.935Z,101306.77
2019-03-26T19:08:23.082Z,101306.00
2019-03-26T19:10:54.613Z,101315.39
2019-03-26T19:13:26.285Z,101306.59
2019-03-26T19:16:22.833Z,101315.01
2019-03-26T19:18:59.614Z,101319.88
2019-03-26T19:21:40.400Z,101321.77
2019-03-26T19:24:18.201Z,101326.01
2019-03-26T19:26:56.923Z,101331.26
2019-03-26T19:29:32.714Z,101334.66
2019-03-26T19:32:03.928Z,101341.89
2019-03-26T19:34:37.282Z,101345.90
2019-03-26T19:37:12.017Z,101345.70
2019-03-26T19:39:49.992Z,101343.30
2019-03-26T19:42:33.160Z,101344.35
2019-03-26T19:45:05.673Z,101346.87
2019-03-26T19:47:42.480Z,101347.52
2019-03-26T19:50:19.607Z,101346.71
2019-03-26T19:52:54.399Z,101342.34
2019-03-26T19:55:34.770Z,101346.75
2019-03-26T19:58:11.426Z,101356.36
2019-03-26T20:00:44.401Z,101364.73
2019-03-26T20:03:28.394Z,101375.34
2019-03-26T20:06:14.444Z,101380.25
2019-03-26T20:08:51.916Z,101375.45
2019-03-26T20:11:29.993Z,101381.09
2019-03-26T20:14:19.563Z,101380.23
2019-03-26T20:16:58.220Z,101377.70
2019-03-26T20:19:39.947Z,101376.37
2019-03-26T20:22:22.237Z,101377.59
2019-03-26T20:25:18.502Z,101383.56
2019-03-26T20:27:50.092Z,101388.28
2019-03-26T20:30:22.613Z,101398.42
2019-03-26T20:33:08.390Z,101396.67
2019-03-26T20:35:40.205Z,101401.51
2019-03-26T20:38:16.165Z,101402.05
2019-03-26T20:40:50.534Z,101400.73
2019-03-26T20:43:22.777Z,101404.05
2019-03-26T20:45:59.044Z,101409.84
2019-03-26T20:48:37.855Z,101413.75
2019-03-26T20:51:13.420Z,101411.77
2019-03-26T20:53:53.173Z,101413.70
2019-03-26T20:56:28.393Z,101419.42
2019-03-26T20:59:02.623Z,101417.61
2019-03-26T21:01:48.743Z,101420.97
2019-03-26T21:04:25.466Z,101422.09
2019-03-26T21:07:08.450Z,101419.72
2019-03-26T21:09:44.349Z,101423.64
2019-03-26T21:12:22.712Z,101429.76
2019-03-26T21:14:58.552Z,101424.86
2019-03-26T21:17:32.657Z,101427.73
2019-03-26T21:20:26.871Z,101424.75
2019-03-26T21:23:14.419Z,101430.85
2019-03-26T21:29:40.962Z,101437.34
2019-03-26T21:32:41.224Z,101438.13
2019-03-26T21:35:44.665Z,101435.30
2019-03-26T21:38:21.275Z,101428.91
2019-03-26T21:41:12.199Z,101432.17
2019-03-26T21:44:12.595Z,101424.61
2019-03-26T21:47:01.220Z,101436.45
2019-03-26T21:49:56.330Z,101437.63
2019-03-26T21:52:28.562Z,101433.47
2019-03-26T21:55:04.117Z,101433.11
2019-03-26T21:57:39.365Z,101433.47
2019-03-26T22:00:15.025Z,101440.54
2019-03-26T22:02:57.315Z,101436.62
2019-03-26T22:05:31.420Z,101443.81
2019-03-26T22:08:12.745Z,101447.11
2019-03-26T22:10:55.313Z,101452.33
2019-03-26T22:13:27.083Z,101458.62
2019-03-26T22:16:02.099Z,101451.23
2019-03-26T22:18:46.550Z,101460.03
2019-03-26T22:21:37.495Z,101465.16
2019-03-26T22:24:19.697Z,101464.13
2019-03-26T22:27:03.027Z,101458.18
2019-03-26T22:29:50.679Z,101465.38
2019-03-26T22:35:57.008Z,101477.82
2019-03-26T22:38:36.529Z,101484.27
2019-03-26T22:41:18.805Z,101486.47
2019-03-26T22:43:55.400Z,101484.41
2019-03-26T22:50:22.382Z,101487.31
2019-03-26T22:53:03.107Z,101490.75
2019-03-26T22:55:57.430Z,101495.31
2019-03-26T22:59:07.373Z,101501.80
2019-03-26T23:02:21.746Z,101502.86
2019-03-26T23:05:41.863Z,101502.05
2019-03-26T23:08:16.054Z,101506.59
2019-03-26T23:10:53.348Z,101504.08
2019-03-26T23:13:52.728Z,101507.28
2019-03-26T23:16:53.869Z,101510.12
2019-03-26T23:19:56.994Z,101506.53
2019-03-26T23:22:47.314Z,101512.47
2019-03-26T23:25:25.178Z,101515.22
2019-03-26T23:28:01.241Z,101518.11
2019-03-26T23:30:34.710Z,101519.77
2019-03-26T23:33:09.063Z,101521.69
2019-03-26T23:35:49.391Z,101522.64
2019-03-26T23:38:27.350Z,101525.77
2019-03-26T23:41:04.331Z,101523.13
2019-03-26T23:43:43.897Z,101533.23
2019-03-26T23:46:18.311Z,101530.34
2019-03-26T23:48:53.215Z,101529.86
2019-03-26T23:51:28.088Z,101523.56
2019-03-26T23:54:28.081Z,101527.12
2019-03-26T23:57:17.091Z,101528.14
2019-03-26T23:59:49.354Z,101530.14
